createdAt,value
2018-01-27T00:00:11.004Z,968.15
2018-01-27T00:01:10.971Z,968.15
2018-01-27T00:02:10.923Z,968.14
2018-01-27T00:03:10.889Z,968.16
2018-01-27T00:04:10.847Z,968.21
2018-01-27T00:05:10.800Z,968.20
2018-01-27T00:06:10.769Z,968.21
2018-01-27T00:07:10.720Z,968.23
2018-01-27T00:08:10.687Z,968.25
2018-01-27T00:09:10.640Z,968.26
2018-01-27T00:10:10.600Z,968.21
2018-01-27T00:11:10.564Z,968.26
2018-01-27T00:12:10.518Z,968.25
2018-01-27T00:13:10.477Z,968.26
2018-01-27T00:14:10.435Z,968.29
2018-01-27T00:15:10.396Z,968.32
2018-01-27T00:16:10.358Z,968.32
2018-01-27T00:17:10.315Z,968.32
2018-01-27T00:18:10.275Z,968.36
2018-01-27T00:19:10.234Z,968.38
2018-01-27T00:20:10.193Z,968.38
2018-01-27T00:21:10.153Z,968.41
2018-01-27T00:22:10.112Z,968.44
2018-01-27T00:23:10.071Z,968.42
2018-01-27T00:24:10.031Z,968.41
2018-01-27T00:25:09.993Z,968.40
2018-01-27T00:26:09.950Z,968.38
2018-01-27T00:27:09.911Z,968.38
2018-01-27T00:28:09.870Z,968.43
2018-01-27T00:29:09.828Z,968.47
2018-01-27T00:30:09.788Z,968.48
2018-01-27T00:31:09.747Z,968.47
2018-01-27T00:32:09.706Z,968.44
2018-01-27T00:33:09.665Z,968.50
2018-01-27T00:34:09.627Z,968.48
2018-01-27T00:35:09.586Z,968.46
2018-01-27T00:36:09.543Z,968.48
2018-01-27T00:37:09.506Z,968.44
2018-01-27T00:38:09.463Z,968.50
2018-01-27T00:39:09.424Z,968.48
2018-01-27T00:40:09.383Z,968.50
2018-01-27T00:41:09.344Z,968.51
2018-01-27T00:42:09.306Z,968.56
2018-01-27T00:43:09.261Z,968.59
2018-01-27T00:44:09.220Z,968.60
2018-01-27T00:45:09.179Z,968.59
2018-01-27T00:46:09.141Z,968.66
2018-01-27T00:47:09.099Z,968.59
2018-01-27T00:48:09.057Z,968.60
2018-01-27T00:49:09.019Z,968.58
2018-01-27T00:50:08.976Z,968.59
2018-01-27T00:51:08.937Z,968.63
2018-01-27T00:52:08.896Z,968.68
2018-01-27T00:53:08.856Z,968.70
2018-01-27T00:54:08.816Z,968.68
2018-01-27T00:55:08.776Z,968.68
2018-01-27T00:56:08.735Z,968.70
2018-01-27T00:57:08.695Z,968.73
2018-01-27T00:58:08.654Z,968.75
2018-01-27T00:59:08.615Z,968.71
2018-01-27T01:00:08.575Z,968.75
2018-01-27T01:01:08.533Z,968.76
2018-01-27T01:02:08.495Z,968.79
2018-01-27T01:03:08.451Z,968.78
2018-01-27T01:04:08.414Z,968.78
2018-01-27T01:05:08.370Z,968.73
2018-01-27T01:06:08.331Z,968.74
2018-01-27T01:07:08.289Z,968.75
2018-01-27T01:08:08.250Z,968.75
2018-01-27T01:09:08.214Z,968.74
2018-01-27T01:10:08.168Z,968.78
2018-01-27T01:11:08.128Z,968.77
2018-01-27T01:12:08.087Z,968.80
2018-01-27T01:13:08.045Z,968.83
2018-01-27T01:14:08.007Z,968.83
2018-01-27T01:15:07.965Z,968.85
2018-01-27T01:16:07.925Z,968.87
2018-01-27T01:17:07.884Z,968.84
2018-01-27T01:18:07.844Z,968.83
2018-01-27T01:19:07.802Z,968.86
2018-01-27T01:20:07.763Z,968.86
2018-01-27T01:21:07.723Z,968.84
2018-01-27T01:22:07.682Z,968.87
2018-01-27T01:23:07.641Z,968.80
2018-01-27T01:24:07.601Z,968.77
2018-01-27T01:25:07.561Z,968.79
2018-01-27T01:26:07.521Z,968.74
2018-01-27T01:27:07.480Z,968.75
2018-01-27T01:28:07.438Z,968.74
2018-01-27T01:29:07.399Z,968.74
2018-01-27T01:30:07.357Z,968.72
2018-01-27T01:31:07.318Z,968.68
2018-01-27T01:32:07.278Z,968.70
2018-01-27T01:33:07.235Z,968.69
2018-01-27T01:34:07.196Z,968.73
2018-01-27T01:35:07.155Z,968.73
2018-01-27T01:36:07.114Z,968.74
2018-01-27T01:37:07.074Z,968.74
2018-01-27T01:38:07.034Z,968.78
2018-01-27T01:39:06.993Z,968.79
2018-01-27T01:40:06.952Z,968.82
2018-01-27T01:41:06.912Z,968.86
2018-01-27T01:42:06.882Z,968.90
2018-01-27T01:43:06.834Z,968.88
2018-01-27T01:44:06.793Z,968.87
2018-01-27T01:45:06.750Z,968.89
2018-01-27T01:46:06.711Z,968.82
2018-01-27T01:47:06.667Z,968.89
2018-01-27T01:48:06.628Z,968.82
2018-01-27T01:49:06.587Z,968.83
2018-01-27T01:50:06.547Z,968.84
2018-01-27T01:51:06.505Z,968.81
2018-01-27T01:52:06.465Z,968.78
2018-01-27T01:53:06.425Z,968.79
2018-01-27T01:54:06.385Z,968.75
2018-01-27T01:55:06.343Z,968.75
2018-01-27T01:56:06.308Z,968.74
2018-01-27T01:57:06.263Z,968.76
2018-01-27T01:58:06.222Z,968.76
2018-01-27T01:59:06.175Z,968.76
2018-01-27T02:00:06.141Z,968.73
2018-01-27T02:01:06.101Z,968.79
2018-01-27T02:02:06.059Z,968.79
2018-01-27T02:03:06.017Z,968.81
2018-01-27T02:04:05.978Z,968.86
2018-01-27T02:05:05.939Z,968.82
2018-01-27T02:06:05.898Z,968.84
2018-01-27T02:07:05.862Z,968.85
2018-01-27T02:08:05.818Z,968.89
2018-01-27T02:09:05.771Z,968.89
2018-01-27T02:10:05.735Z,968.93
2018-01-27T02:11:05.695Z,968.90
2018-01-27T02:12:05.653Z,968.95
2018-01-27T02:13:05.610Z,968.90
2018-01-27T02:14:05.571Z,968.94
2018-01-27T02:15:05.533Z,968.92
2018-01-27T02:16:05.490Z,968.93
2018-01-27T02:17:05.450Z,968.93
2018-01-27T02:18:05.410Z,968.93
2018-01-27T02:19:05.368Z,968.95
2018-01-27T02:20:05.328Z,968.95
2018-01-27T02:21:05.288Z,969.00
2018-01-27T02:22:05.250Z,969.03
2018-01-27T02:23:05.205Z,968.99
2018-01-27T02:24:05.166Z,968.98
2018-01-27T02:25:05.129Z,968.97
2018-01-27T02:26:05.085Z,968.95
2018-01-27T02:27:05.044Z,968.94
2018-01-27T02:28:05.002Z,968.91
2018-01-27T02:29:04.962Z,968.90
2018-01-27T02:30:04.922Z,968.90
2018-01-27T02:31:04.880Z,968.94
2018-01-27T02:32:04.840Z,968.95
2018-01-27T02:33:04.800Z,968.99
2018-01-27T02:34:04.760Z,969.02
2018-01-27T02:35:04.718Z,968.98
2018-01-27T02:36:04.678Z,969.01
2018-01-27T02:37:04.637Z,968.97
2018-01-27T02:38:04.606Z,969.01
2018-01-27T02:39:04.556Z,969.00
2018-01-27T02:40:04.515Z,968.97
2018-01-27T02:41:04.474Z,969.00
2018-01-27T02:42:04.437Z,968.99
2018-01-27T02:43:04.394Z,969.00
2018-01-27T02:44:04.351Z,969.03
2018-01-27T02:45:04.312Z,969.03
2018-01-27T02:46:04.274Z,969.08
2018-01-27T02:47:04.230Z,969.07
2018-01-27T02:48:04.189Z,969.10
2018-01-27T02:49:04.149Z,969.09
2018-01-27T02:50:04.108Z,969.08
2018-01-27T02:51:04.072Z,969.09
2018-01-27T02:52:04.028Z,969.11
2018-01-27T02:53:03.988Z,969.10
2018-01-27T02:54:03.947Z,969.08
2018-01-27T02:55:03.905Z,969.05
2018-01-27T02:56:03.864Z,969.08
2018-01-27T02:57:03.825Z,969.06
2018-01-27T02:58:03.783Z,969.10
2018-01-27T02:59:03.743Z,969.09
2018-01-27T03:00:03.702Z,969.10
2018-01-27T03:01:03.661Z,969.11
2018-01-27T03:02:03.621Z,969.10
2018-01-27T03:03:03.580Z,969.10
2018-01-27T03:04:03.540Z,969.13
2018-01-27T03:05:03.499Z,969.12
2018-01-27T03:06:03.459Z,969.12
2018-01-27T03:07:03.423Z,969.16
2018-01-27T03:08:03.379Z,969.12
2018-01-27T03:09:03.337Z,969.11
2018-01-27T03:10:03.291Z,969.13
2018-01-27T03:11:03.255Z,969.16
2018-01-27T03:12:03.214Z,969.17
2018-01-27T03:13:03.176Z,969.20
2018-01-27T03:14:03.135Z,969.24
2018-01-27T03:15:03.094Z,969.26
2018-01-27T03:16:03.053Z,969.29
2018-01-27T03:17:03.013Z,969.31
2018-01-27T03:18:02.971Z,969.30
2018-01-27T03:19:02.930Z,969.32
2018-01-27T03:20:02.885Z,969.32
2018-01-27T03:21:02.848Z,969.39
2018-01-27T03:22:02.809Z,969.42
2018-01-27T03:23:02.773Z,969.42
2018-01-27T03:24:02.729Z,969.46
2018-01-27T03:25:02.688Z,969.43
2018-01-27T03:26:02.648Z,969.47
2018-01-27T03:27:02.604Z,969.48
2018-01-27T03:28:02.566Z,969.49
2018-01-27T03:29:02.524Z,969.48
2018-01-27T03:30:02.486Z,969.51
2018-01-27T03:31:02.446Z,969.49
2018-01-27T03:32:02.403Z,969.47
2018-01-27T03:33:02.365Z,969.49
2018-01-27T03:34:02.323Z,969.48
2018-01-27T03:35:02.282Z,969.46
2018-01-27T03:36:02.240Z,969.48
2018-01-27T03:37:02.205Z,969.47
2018-01-27T03:38:02.159Z,969.48
2018-01-27T03:39:02.119Z,969.47
2018-01-27T03:40:02.079Z,969.49
2018-01-27T03:41:02.038Z,969.51
2018-01-27T03:42:01.997Z,969.54
2018-01-27T03:43:01.957Z,969.58
2018-01-27T03:44:01.915Z,969.56
2018-01-27T03:45:01.876Z,969.60
2018-01-27T03:46:01.835Z,969.61
2018-01-27T03:47:01.795Z,969.66
2018-01-27T03:48:01.753Z,969.69
2018-01-27T03:49:01.712Z,969.73
2018-01-27T03:50:01.670Z,969.75
2018-01-27T03:51:01.641Z,969.83
2018-01-27T03:52:01.597Z,969.81
2018-01-27T03:53:01.550Z,969.83
2018-01-27T03:54:01.510Z,969.83
2018-01-27T03:55:01.470Z,969.84
2018-01-27T03:56:01.431Z,969.82
2018-01-27T03:57:01.388Z,969.85
2018-01-27T03:58:01.348Z,969.85
2018-01-27T03:59:01.307Z,969.83
2018-01-27T04:00:01.263Z,969.89
2018-01-27T04:01:01.226Z,969.92
2018-01-27T04:02:01.187Z,969.87
2018-01-27T04:03:01.150Z,969.87
2018-01-27T04:04:01.104Z,969.89
2018-01-27T04:05:01.062Z,969.88
2018-01-27T04:06:01.024Z,969.85
2018-01-27T04:07:00.983Z,969.87
2018-01-27T04:08:00.942Z,969.87
2018-01-27T04:09:00.902Z,969.94
2018-01-27T04:10:00.861Z,969.91
2018-01-27T04:11:00.819Z,969.92
2018-01-27T04:12:00.778Z,969.93
2018-01-27T04:13:00.740Z,969.97
2018-01-27T04:14:00.697Z,969.98
2018-01-27T04:15:00.656Z,969.98
2018-01-27T04:16:00.617Z,969.97
2018-01-27T04:17:00.576Z,969.99
2018-01-27T04:18:00.536Z,969.92
2018-01-27T04:19:00.493Z,969.95
2018-01-27T04:20:00.454Z,969.99
2018-01-27T04:21:00.415Z,969.95
2018-01-27T04:22:00.377Z,969.96
2018-01-27T04:23:00.330Z,969.99
2018-01-27T04:24:00.292Z,969.99
2018-01-27T04:25:00.248Z,970.00
2018-01-27T04:26:00.211Z,969.95
2018-01-27T04:27:00.170Z,969.99
2018-01-27T04:28:00.129Z,970.00
2018-01-27T04:29:00.088Z,970.04
2018-01-27T04:30:00.066Z,970.03
2018-01-27T04:31:00.009Z,970.10
2018-01-27T04:31:59.966Z,970.10
2018-01-27T04:32:59.925Z,970.11
2018-01-27T04:33:59.885Z,970.14
2018-01-27T04:34:59.843Z,970.14
2018-01-27T04:35:59.802Z,970.13
2018-01-27T04:36:59.763Z,970.13
2018-01-27T04:37:59.722Z,970.16
2018-01-27T04:38:59.685Z,970.18
2018-01-27T04:39:59.642Z,970.14
2018-01-27T04:40:59.595Z,970.17
2018-01-27T04:41:59.562Z,970.18
2018-01-27T04:42:59.519Z,970.19
2018-01-27T04:43:59.476Z,970.23
2018-01-27T04:44:59.436Z,970.22
2018-01-27T04:45:59.398Z,970.25
2018-01-27T04:46:59.360Z,970.21
2018-01-27T04:47:59.314Z,970.19
2018-01-27T04:48:59.275Z,970.18
2018-01-27T04:49:59.234Z,970.21
2018-01-27T04:50:59.193Z,970.22
2018-01-27T04:51:59.151Z,970.28
2018-01-27T04:52:59.114Z,970.25
2018-01-27T04:53:59.074Z,970.23
2018-01-27T04:54:59.030Z,970.27
2018-01-27T04:55:58.989Z,970.25
2018-01-27T04:56:58.948Z,970.25
2018-01-27T04:57:58.908Z,970.32
2018-01-27T04:58:58.868Z,970.33
2018-01-27T04:59:58.827Z,970.35
2018-01-27T05:00:58.784Z,970.36
2018-01-27T05:01:58.744Z,970.37
2018-01-27T05:02:58.702Z,970.43
2018-01-27T05:03:58.660Z,970.48
2018-01-27T05:04:58.622Z,970.46
2018-01-27T05:05:58.580Z,970.52
2018-01-27T05:06:58.539Z,970.59
2018-01-27T05:07:58.500Z,970.60
2018-01-27T05:08:58.459Z,970.65
2018-01-27T05:09:58.418Z,970.68
2018-01-27T05:10:58.389Z,970.70
2018-01-27T05:11:58.338Z,970.74
2018-01-27T05:12:58.295Z,970.76
2018-01-27T05:13:58.257Z,970.78
2018-01-27T05:14:58.218Z,970.77
2018-01-27T05:15:58.173Z,970.82
2018-01-27T05:16:58.132Z,970.83
2018-01-27T05:17:58.093Z,970.85
2018-01-27T05:18:58.051Z,970.84
2018-01-27T05:19:58.010Z,970.86
2018-01-27T05:20:57.970Z,970.88
2018-01-27T05:21:57.929Z,970.89
2018-01-27T05:22:57.888Z,970.89
2018-01-27T05:23:57.846Z,970.88
2018-01-27T05:24:57.806Z,970.93
2018-01-27T05:25:57.766Z,970.96
2018-01-27T05:26:57.724Z,970.92
2018-01-27T05:27:57.685Z,970.91
2018-01-27T05:28:58.312Z,970.93
2018-01-27T05:29:57.600Z,970.93
2018-01-27T05:30:57.562Z,970.95
2018-01-27T05:31:57.522Z,970.97
2018-01-27T05:32:57.486Z,970.97
2018-01-27T05:33:57.442Z,970.95
2018-01-27T05:34:57.399Z,970.96
2018-01-27T05:35:57.360Z,970.93
2018-01-27T05:36:57.324Z,970.98
2018-01-27T05:37:57.280Z,970.96
2018-01-27T05:38:57.239Z,970.97
2018-01-27T05:39:57.197Z,970.94
2018-01-27T05:40:57.158Z,970.98
2018-01-27T05:41:57.114Z,971.03
2018-01-27T05:42:57.074Z,971.05
2018-01-27T05:43:57.034Z,971.05
2018-01-27T05:44:56.992Z,971.09
2018-01-27T05:45:56.952Z,971.09
2018-01-27T05:46:56.913Z,971.14
2018-01-27T05:47:56.872Z,971.11
2018-01-27T05:48:56.832Z,971.15
2018-01-27T05:49:56.790Z,971.15
2018-01-27T05:50:56.749Z,971.19
2018-01-27T05:51:56.704Z,971.20
2018-01-27T05:52:56.669Z,971.23
2018-01-27T05:53:56.627Z,971.23
2018-01-27T05:54:56.648Z,971.18
2018-01-27T05:55:56.545Z,971.21
2018-01-27T05:56:56.504Z,971.22
2018-01-27T05:57:56.472Z,971.24
2018-01-27T05:58:56.425Z,971.19
2018-01-27T05:59:56.383Z,971.22
2018-01-27T06:00:56.342Z,971.24
2018-01-27T06:01:56.301Z,971.21
2018-01-27T06:02:56.261Z,971.26
2018-01-27T06:03:56.224Z,971.25
2018-01-27T06:04:56.179Z,971.27
2018-01-27T06:05:56.139Z,971.30
2018-01-27T06:06:56.097Z,971.29
2018-01-27T06:07:56.058Z,971.29
2018-01-27T06:08:56.020Z,971.30
2018-01-27T06:09:55.975Z,971.29
2018-01-27T06:10:55.935Z,971.34
2018-01-27T06:11:55.896Z,971.35
2018-01-27T06:12:55.855Z,971.39
2018-01-27T06:13:55.814Z,971.34
2018-01-27T06:14:55.773Z,971.35
2018-01-27T06:15:55.732Z,971.37
2018-01-27T06:16:55.771Z,971.41
2018-01-27T06:17:55.651Z,971.46
2018-01-27T06:18:55.609Z,971.44
2018-01-27T06:19:55.569Z,971.49
2018-01-27T06:20:55.528Z,971.52
2018-01-27T06:21:55.495Z,971.57
2018-01-27T06:22:55.447Z,971.59
2018-01-27T06:23:55.408Z,971.66
2018-01-27T06:24:55.366Z,971.64
2018-01-27T06:25:55.328Z,971.65
2018-01-27T06:26:55.285Z,971.65
2018-01-27T06:27:55.245Z,971.69
2018-01-27T06:28:55.251Z,971.66
2018-01-27T06:29:55.162Z,971.69
2018-01-27T06:30:55.120Z,971.69
2018-01-27T06:31:55.080Z,971.70
2018-01-27T06:32:55.042Z,971.66
2018-01-27T06:33:55.001Z,971.75
2018-01-27T06:34:54.958Z,971.74
2018-01-27T06:35:54.920Z,971.72
2018-01-27T06:36:54.876Z,971.71
2018-01-27T06:37:54.832Z,971.76
2018-01-27T06:38:54.798Z,971.79
2018-01-27T06:39:54.756Z,971.83
2018-01-27T06:40:54.715Z,971.82
2018-01-27T06:41:54.671Z,971.86
2018-01-27T06:42:54.634Z,971.88
2018-01-27T06:43:54.592Z,971.88
2018-01-27T06:44:54.553Z,971.92
2018-01-27T06:45:54.514Z,971.92
2018-01-27T06:46:54.470Z,971.96
2018-01-27T06:47:54.429Z,971.95
2018-01-27T06:48:54.390Z,971.98
2018-01-27T06:49:54.350Z,972.00
2018-01-27T06:50:54.307Z,972.02
2018-01-27T06:51:54.267Z,972.02
2018-01-27T06:52:54.226Z,972.04
2018-01-27T06:53:54.190Z,972.05
2018-01-27T06:54:54.146Z,972.08
2018-01-27T06:55:54.105Z,972.07
2018-01-27T06:56:54.065Z,972.13
2018-01-27T06:57:54.024Z,972.14
2018-01-27T06:58:53.982Z,972.15
2018-01-27T06:59:54.014Z,972.18
2018-01-27T07:00:53.902Z,972.20
2018-01-27T07:01:53.861Z,972.21
2018-01-27T07:02:53.819Z,972.26
2018-01-27T07:03:53.778Z,972.25
2018-01-27T07:04:53.747Z,972.28
2018-01-27T07:05:53.697Z,972.27
2018-01-27T07:06:53.657Z,972.26
2018-01-27T07:07:53.616Z,972.30
2018-01-27T07:08:53.575Z,972.29
2018-01-27T07:09:53.534Z,972.29
2018-01-27T07:10:53.493Z,972.33
2018-01-27T07:11:53.453Z,972.32
2018-01-27T07:12:53.415Z,972.31
2018-01-27T07:13:53.372Z,972.38
2018-01-27T07:14:53.330Z,972.35
2018-01-27T07:15:53.290Z,972.34
2018-01-27T07:16:53.255Z,972.35
2018-01-27T07:17:53.209Z,972.39
2018-01-27T07:18:53.167Z,972.41
2018-01-27T07:19:53.127Z,972.43
2018-01-27T07:20:53.085Z,972.43
2018-01-27T07:21:53.047Z,972.45
2018-01-27T07:22:53.004Z,972.42
2018-01-27T07:23:52.963Z,972.48
2018-01-27T07:24:52.923Z,972.48
2018-01-27T07:25:52.882Z,972.52
2018-01-27T07:26:52.838Z,972.53
2018-01-27T07:27:52.801Z,972.54
2018-01-27T07:28:52.760Z,972.56
2018-01-27T07:29:52.718Z,972.51
2018-01-27T07:30:52.677Z,972.53
2018-01-27T07:31:52.636Z,972.53
2018-01-27T07:32:52.604Z,972.55
2018-01-27T07:33:52.557Z,972.55
2018-01-27T07:34:52.514Z,972.57
2018-01-27T07:35:52.474Z,972.61
2018-01-27T07:36:52.432Z,972.65
2018-01-27T07:37:52.392Z,972.68
2018-01-27T07:38:52.357Z,972.71
2018-01-27T07:39:52.311Z,972.72
2018-01-27T07:40:52.270Z,972.73
2018-01-27T07:41:52.230Z,972.80
2018-01-27T07:42:52.188Z,972.81
2018-01-27T07:43:52.147Z,972.82
2018-01-27T07:44:52.105Z,972.86
2018-01-27T07:45:52.066Z,972.88
2018-01-27T07:46:52.024Z,972.93
2018-01-27T07:47:51.984Z,972.92
2018-01-27T07:48:51.943Z,972.91
2018-01-27T07:49:51.903Z,972.86
2018-01-27T07:50:51.862Z,972.92
2018-01-27T07:51:51.821Z,972.90
2018-01-27T07:52:51.779Z,972.89
2018-01-27T07:53:51.741Z,972.96
2018-01-27T07:54:51.699Z,972.96
2018-01-27T07:55:51.658Z,972.92
2018-01-27T07:56:51.617Z,972.93
2018-01-27T07:57:51.579Z,972.95
2018-01-27T07:58:51.536Z,972.94
2018-01-27T07:59:51.495Z,972.96
2018-01-27T08:00:51.454Z,972.94
2018-01-27T08:01:51.414Z,973.00
2018-01-27T08:02:51.373Z,972.99
2018-01-27T08:03:51.336Z,972.98
2018-01-27T08:04:51.291Z,972.99
2018-01-27T08:05:51.252Z,973.01
2018-01-27T08:06:51.209Z,973.01
2018-01-27T08:07:51.171Z,973.05
2018-01-27T08:08:51.129Z,973.04
2018-01-27T08:09:51.090Z,973.03
2018-01-27T08:10:51.048Z,973.05
2018-01-27T08:11:51.010Z,973.01
2018-01-27T08:12:50.969Z,973.04
2018-01-27T08:13:50.929Z,973.03
2018-01-27T08:14:50.884Z,973.01
2018-01-27T08:15:50.843Z,973.05
2018-01-27T08:16:50.800Z,973.05
2018-01-27T08:17:50.767Z,973.14
2018-01-27T08:18:50.721Z,973.12
2018-01-27T08:19:50.681Z,973.17
2018-01-27T08:20:50.640Z,973.15
2018-01-27T08:21:50.600Z,973.15
2018-01-27T08:22:50.559Z,973.18
2018-01-27T08:23:50.518Z,973.17
2018-01-27T08:24:50.479Z,973.15
2018-01-27T08:25:50.439Z,973.19
2018-01-27T08:26:50.397Z,973.22
2018-01-27T08:27:50.354Z,973.21
2018-01-27T08:28:50.315Z,973.23
2018-01-27T08:29:50.274Z,973.26
2018-01-27T08:30:50.233Z,973.31
2018-01-27T08:31:50.193Z,973.33
2018-01-27T08:32:50.153Z,973.31
2018-01-27T08:33:50.112Z,973.30
2018-01-27T08:34:50.070Z,973.31
2018-01-27T08:35:50.030Z,973.31
2018-01-27T08:36:49.990Z,973.29
2018-01-27T08:37:49.948Z,973.31
2018-01-27T08:38:49.907Z,973.34
2018-01-27T08:39:49.868Z,973.34
2018-01-27T08:40:49.828Z,973.34
2018-01-27T08:41:49.786Z,973.36
2018-01-27T08:42:49.746Z,973.39
2018-01-27T08:43:49.704Z,973.42
2018-01-27T08:44:49.663Z,973.40
2018-01-27T08:45:49.629Z,973.43
2018-01-27T08:46:49.584Z,973.45
2018-01-27T08:47:49.548Z,973.47
2018-01-27T08:48:49.501Z,973.47
2018-01-27T08:49:49.463Z,973.48
2018-01-27T08:50:49.421Z,973.52
2018-01-27T08:51:49.381Z,973.57
2018-01-27T08:52:49.340Z,973.58
2018-01-27T08:53:49.299Z,973.61
2018-01-27T08:54:49.258Z,973.68
2018-01-27T08:55:49.220Z,973.65
2018-01-27T08:56:49.176Z,973.66
2018-01-27T08:57:49.136Z,973.65
2018-01-27T08:58:49.094Z,973.64
2018-01-27T08:59:49.055Z,973.64
2018-01-27T09:00:49.020Z,973.65
2018-01-27T09:01:48.973Z,973.65
2018-01-27T09:02:48.932Z,973.66
2018-01-27T09:03:48.894Z,973.67
2018-01-27T09:04:48.857Z,973.67
2018-01-27T09:05:48.811Z,973.70
2018-01-27T09:06:48.771Z,973.70
2018-01-27T09:07:48.729Z,973.69
2018-01-27T09:08:48.694Z,973.71
2018-01-27T09:09:48.645Z,973.72
2018-01-27T09:10:48.610Z,973.67
2018-01-27T09:11:48.566Z,973.67
2018-01-27T09:12:48.526Z,973.67
2018-01-27T09:13:48.486Z,973.71
2018-01-27T09:14:48.444Z,973.68
2018-01-27T09:15:48.410Z,973.65
2018-01-27T09:16:48.386Z,973.65
2018-01-27T09:17:48.323Z,973.67
2018-01-27T09:18:48.286Z,973.64
2018-01-27T09:19:48.244Z,973.68
2018-01-27T09:20:48.201Z,973.64
2018-01-27T09:21:48.160Z,973.68
2018-01-27T09:22:48.120Z,973.67
2018-01-27T09:23:48.079Z,973.74
2018-01-27T09:24:48.038Z,973.72
2018-01-27T09:25:47.998Z,973.79
2018-01-27T09:26:47.958Z,973.80
2018-01-27T09:27:47.918Z,973.81
2018-01-27T09:28:47.877Z,973.81
2018-01-27T09:29:47.835Z,973.82
2018-01-27T09:30:47.796Z,973.83
2018-01-27T09:31:47.765Z,973.86
2018-01-27T09:32:47.715Z,973.85
2018-01-27T09:33:47.673Z,973.90
2018-01-27T09:34:47.632Z,973.93
2018-01-27T09:35:47.591Z,973.94
2018-01-27T09:36:47.553Z,973.96
2018-01-27T09:37:47.513Z,973.95
2018-01-27T09:38:47.471Z,973.95
2018-01-27T09:39:47.432Z,973.95
2018-01-27T09:40:47.390Z,973.96
2018-01-27T09:41:47.350Z,973.99
2018-01-27T09:42:47.306Z,974.00
2018-01-27T09:43:47.267Z,973.99
2018-01-27T09:44:47.229Z,974.01
2018-01-27T09:45:47.186Z,974.01
2018-01-27T09:46:47.144Z,974.02
2018-01-27T09:47:47.116Z,974.00
2018-01-27T09:48:47.062Z,974.05
2018-01-27T09:49:47.022Z,974.03
2018-01-27T09:50:46.979Z,974.07
2018-01-27T09:51:46.941Z,974.06
2018-01-27T09:52:46.899Z,974.06
2018-01-27T09:53:46.862Z,974.05
2018-01-27T09:54:46.819Z,974.07
2018-01-27T09:55:46.778Z,974.05
2018-01-27T09:56:46.746Z,974.07
2018-01-27T09:57:46.697Z,974.02
2018-01-27T09:58:46.656Z,973.99
2018-01-27T09:59:46.616Z,974.03
2018-01-27T10:00:46.576Z,974.08
2018-01-27T10:01:46.536Z,974.11
2018-01-27T10:02:46.546Z,974.13
2018-01-27T10:03:46.453Z,974.13
2018-01-27T10:04:46.413Z,974.11
2018-01-27T10:05:46.371Z,974.12
2018-01-27T10:06:46.331Z,974.11
2018-01-27T10:07:46.293Z,974.14
2018-01-27T10:08:46.250Z,974.15
2018-01-27T10:09:46.209Z,974.15
2018-01-27T10:10:46.168Z,974.18
2018-01-27T10:11:46.127Z,974.19
2018-01-27T10:12:46.089Z,974.17
2018-01-27T10:13:46.047Z,974.19
2018-01-27T10:14:46.005Z,974.19
2018-01-27T10:15:45.967Z,974.16
2018-01-27T10:16:45.930Z,974.15
2018-01-27T10:17:45.885Z,974.17
2018-01-27T10:18:45.843Z,974.17
2018-01-27T10:19:45.803Z,974.15
2018-01-27T10:20:45.762Z,974.19
2018-01-27T10:21:45.774Z,974.14
2018-01-27T10:22:45.679Z,974.16
2018-01-27T10:23:45.641Z,974.14
2018-01-27T10:24:45.600Z,974.14
2018-01-27T10:25:45.561Z,974.11
2018-01-27T10:26:45.519Z,974.09
2018-01-27T10:27:45.478Z,974.13
2018-01-27T10:28:45.437Z,974.14
2018-01-27T10:29:45.398Z,974.11
2018-01-27T10:30:45.356Z,974.13
2018-01-27T10:31:45.315Z,974.14
2018-01-27T10:32:45.276Z,974.13
2018-01-27T10:33:45.233Z,974.16
2018-01-27T10:34:45.196Z,974.16
2018-01-27T10:35:45.152Z,974.16
2018-01-27T10:36:45.113Z,974.15
2018-01-27T10:37:45.073Z,974.09
2018-01-27T10:38:45.031Z,974.10
2018-01-27T10:39:44.990Z,974.06
2018-01-27T10:40:44.952Z,974.07
2018-01-27T10:41:44.915Z,974.10
2018-01-27T10:42:44.868Z,974.11
2018-01-27T10:43:44.829Z,974.13
2018-01-27T10:44:44.788Z,974.10
2018-01-27T10:45:44.748Z,974.12
2018-01-27T10:46:44.706Z,974.13
2018-01-27T10:47:44.667Z,974.10
2018-01-27T10:48:44.624Z,974.05
2018-01-27T10:49:44.585Z,974.05
2018-01-27T10:50:44.544Z,974.05
2018-01-27T10:51:44.505Z,974.05
2018-01-27T10:52:44.464Z,974.03
2018-01-27T10:53:44.425Z,974.07
2018-01-27T10:54:44.382Z,974.08
2018-01-27T10:55:44.343Z,974.11
2018-01-27T10:56:44.302Z,974.14
2018-01-27T10:57:44.261Z,974.15
2018-01-27T10:58:44.220Z,974.13
2018-01-27T10:59:44.177Z,974.16
2018-01-27T11:00:44.140Z,974.16
2018-01-27T11:01:44.101Z,974.19
2018-01-27T11:02:44.058Z,974.19
2018-01-27T11:03:44.017Z,974.17
2018-01-27T11:04:43.978Z,974.17
2018-01-27T11:05:43.938Z,974.17
2018-01-27T11:06:43.897Z,974.22
2018-01-27T11:07:43.854Z,974.23
2018-01-27T11:08:43.816Z,974.20
2018-01-27T11:09:43.776Z,974.22
2018-01-27T11:10:43.734Z,974.24
2018-01-27T11:11:43.693Z,974.22
2018-01-27T11:12:43.654Z,974.23
2018-01-27T11:13:43.613Z,974.22
2018-01-27T11:14:43.575Z,974.22
2018-01-27T11:15:43.532Z,974.20
2018-01-27T11:16:43.567Z,974.24
2018-01-27T11:17:43.451Z,974.23
2018-01-27T11:18:43.410Z,974.24
2018-01-27T11:19:43.369Z,974.22
2018-01-27T11:20:43.329Z,974.25
2018-01-27T11:21:43.293Z,974.21
2018-01-27T11:22:43.243Z,974.20
2018-01-27T11:23:43.206Z,974.22
2018-01-27T11:24:43.168Z,974.24
2018-01-27T11:25:43.126Z,974.24
2018-01-27T11:26:43.084Z,974.25
2018-01-27T11:27:43.046Z,974.24
2018-01-27T11:28:43.005Z,974.27
2018-01-27T11:29:42.965Z,974.24
2018-01-27T11:30:42.923Z,974.28
2018-01-27T11:31:42.883Z,974.26
2018-01-27T11:32:42.846Z,974.23
2018-01-27T11:33:42.801Z,974.24
2018-01-27T11:34:42.760Z,974.26
2018-01-27T11:35:42.720Z,974.27
2018-01-27T11:36:44.418Z,974.28
2018-01-27T11:37:42.642Z,974.29
2018-01-27T11:38:42.599Z,974.32
2018-01-27T11:39:42.553Z,974.31
2018-01-27T11:40:42.520Z,974.32
2018-01-27T11:41:42.479Z,974.34
2018-01-27T11:42:42.434Z,974.36
2018-01-27T11:43:42.402Z,974.41
2018-01-27T11:44:42.358Z,974.44
2018-01-27T11:45:42.317Z,974.47
2018-01-27T11:46:42.275Z,974.51
2018-01-27T11:47:42.235Z,974.56
2018-01-27T11:48:42.196Z,974.56
2018-01-27T11:49:42.155Z,974.55
2018-01-27T11:50:42.113Z,974.54
2018-01-27T11:51:42.074Z,974.55
2018-01-27T11:52:42.033Z,974.57
2018-01-27T11:53:41.992Z,974.57
2018-01-27T11:54:41.952Z,974.60
2018-01-27T11:55:41.914Z,974.58
2018-01-27T11:56:41.871Z,974.57
2018-01-27T11:57:41.828Z,974.55
2018-01-27T11:58:41.790Z,974.52
2018-01-27T11:59:41.750Z,974.49
2018-01-27T12:00:41.711Z,974.52
2018-01-27T12:01:41.669Z,974.46
2018-01-27T12:02:41.628Z,974.50
2018-01-27T12:03:41.586Z,974.56
2018-01-27T12:04:41.547Z,974.52
2018-01-27T12:05:41.507Z,974.50
2018-01-27T12:06:41.466Z,974.53
2018-01-27T12:07:41.425Z,974.54
2018-01-27T12:08:41.384Z,974.52
2018-01-27T12:09:41.345Z,974.52
2018-01-27T12:10:41.307Z,974.56
2018-01-27T12:11:41.262Z,974.54
2018-01-27T12:12:41.221Z,974.56
2018-01-27T12:13:41.182Z,974.53
2018-01-27T12:14:41.140Z,974.54
2018-01-27T12:15:41.100Z,974.55
2018-01-27T12:16:41.060Z,974.51
2018-01-27T12:17:41.021Z,974.54
2018-01-27T12:18:40.979Z,974.55
2018-01-27T12:19:40.937Z,974.53
2018-01-27T12:20:40.897Z,974.52
2018-01-27T12:21:40.857Z,974.48
2018-01-27T12:22:40.817Z,974.48
2018-01-27T12:23:40.776Z,974.47
2018-01-27T12:24:40.734Z,974.49
2018-01-27T12:25:40.694Z,974.47
2018-01-27T12:26:40.653Z,974.45
2018-01-27T12:27:40.614Z,974.50